createdAt,value
2022-07-27T00:01:55.277Z,18.30
2022-07-27T00:04:22.618Z,18.30
2022-07-27T00:06:50.190Z,18.30
2022-07-27T00:09:19.781Z,18.30
2022-07-27T00:11:47.368Z,18.30
2022-07-27T00:14:14.677Z,18.40
2022-07-27T00:16:42.165Z,18.40
2022-07-27T00:19:10.049Z,18.30
2022-07-27T00:21:44.801Z,18.30
2022-07-27T00:24:13.620Z,18.40
2022-07-27T00:26:41.121Z,18.50
2022-07-27T00:29:08.460Z,18.40
2022-07-27T00:31:36.011Z,18.40
2022-07-27T00:34:03.457Z,18.40
2022-07-27T00:36:30.761Z,18.40
2022-07-27T00:38:58.001Z,18.30
2022-07-27T00:41:25.137Z,18.30
2022-07-27T00:43:57.887Z,18.20
2022-07-27T00:46:26.071Z,18.20
2022-07-27T00:48:53.922Z,18.20
2022-07-27T00:51:22.389Z,18.10
2022-07-27T00:53:51.342Z,18.10
2022-07-27T00:56:18.868Z,18.10
2022-07-27T00:58:50.124Z,18.10
2022-07-27T01:01:19.217Z,18.10
2022-07-27T01:03:47.851Z,18.20
2022-07-27T01:06:23.311Z,18.20
2022-07-27T01:09:15.718Z,18.10
2022-07-27T01:11:43.854Z,18.10
2022-07-27T01:14:13.714Z,18.20
2022-07-27T01:16:41.208Z,18.20
2022-07-27T01:19:13.177Z,18.10
2022-07-27T01:21:40.718Z,18.10
2022-07-27T01:24:08.231Z,18.10
2022-07-27T01:26:36.681Z,18.10
2022-07-27T01:29:04.330Z,18.00
2022-07-27T01:31:31.701Z,17.90
2022-07-27T01:33:59.493Z,17.90
2022-07-27T01:36:27.197Z,17.90
2022-07-27T01:38:54.286Z,17.90
2022-07-27T01:41:21.553Z,17.90
2022-07-27T01:43:48.770Z,17.80
2022-07-27T01:46:16.059Z,17.80
2022-07-27T01:48:43.449Z,17.70
2022-07-27T01:51:10.633Z,17.70
2022-07-27T01:53:37.899Z,17.70
2022-07-27T01:56:10.470Z,17.70
2022-07-27T01:58:41.859Z,17.60
2022-07-27T02:01:09.710Z,17.60
2022-07-27T02:03:37.469Z,17.70
2022-07-27T02:06:05.499Z,17.70
2022-07-27T02:08:32.989Z,17.80
2022-07-27T02:11:18.490Z,17.80
2022-07-27T02:13:47.595Z,17.80
2022-07-27T02:16:17.340Z,17.80
2022-07-27T02:18:46.151Z,17.80
2022-07-27T02:21:16.607Z,17.70
2022-07-27T02:23:45.247Z,17.60
2022-07-27T02:26:12.432Z,17.60
2022-07-27T02:28:39.480Z,17.60
2022-07-27T02:31:06.635Z,17.70
2022-07-27T02:33:34.122Z,17.70
2022-07-27T02:36:01.699Z,17.70
2022-07-27T02:38:28.888Z,17.70
2022-07-27T02:40:56.051Z,17.70
2022-07-27T02:43:23.309Z,17.70
2022-07-27T02:45:51.121Z,17.80
2022-07-27T02:48:18.272Z,17.80
2022-07-27T02:50:45.543Z,17.70
2022-07-27T02:53:12.731Z,17.70
2022-07-27T02:55:40.303Z,17.60
2022-07-27T02:58:07.778Z,17.60
2022-07-27T03:00:34.894Z,17.60
2022-07-27T03:03:02.120Z,17.50
2022-07-27T03:05:29.414Z,17.50
2022-07-27T03:07:56.618Z,17.50
2022-07-27T03:10:23.989Z,17.60
2022-07-27T03:12:51.100Z,17.60
2022-07-27T03:15:18.269Z,17.60
2022-07-27T03:17:47.237Z,17.60
2022-07-27T03:20:14.846Z,17.70
2022-07-27T03:22:42.759Z,17.60
2022-07-27T03:25:10.537Z,17.60
2022-07-27T03:27:37.719Z,17.60
2022-07-27T03:30:06.653Z,17.70
2022-07-27T03:32:33.926Z,17.70
2022-07-27T03:35:01.142Z,17.70
2022-07-27T03:37:28.403Z,17.70
2022-07-27T03:39:55.574Z,17.60
2022-07-27T03:42:22.760Z,17.60
2022-07-27T03:44:52.130Z,17.60
2022-07-27T03:47:19.525Z,17.60
2022-07-27T03:49:47.909Z,17.50
2022-07-27T03:52:17.868Z,17.50
2022-07-27T03:54:46.118Z,17.50
2022-07-27T03:57:13.502Z,17.60
2022-07-27T03:59:40.817Z,17.60
2022-07-27T04:02:08.121Z,17.60
2022-07-27T04:04:35.274Z,17.70
2022-07-27T04:07:02.403Z,17.70
2022-07-27T04:09:29.777Z,17.80
2022-07-27T04:11:58.503Z,17.70
2022-07-27T04:14:26.917Z,17.80
2022-07-27T04:16:54.109Z,18.00
2022-07-27T04:19:21.347Z,18.10
2022-07-27T04:21:48.777Z,18.00
2022-07-27T04:24:16.013Z,18.00
2022-07-27T04:26:44.122Z,18.20
2022-07-27T04:29:11.522Z,18.20
2022-07-27T04:31:39.008Z,18.20
2022-07-27T04:34:06.403Z,18.20
2022-07-27T04:36:33.608Z,18.20
2022-07-27T04:39:01.102Z,18.30
2022-07-27T04:41:30.244Z,18.40
2022-07-27T04:43:59.028Z,18.60
2022-07-27T04:46:28.393Z,18.60
2022-07-27T04:48:56.005Z,18.80
2022-07-27T04:51:23.168Z,18.80
2022-07-27T04:53:53.367Z,18.90
2022-07-27T04:56:26.731Z,19.00
2022-07-27T04:58:54.823Z,19.10
2022-07-27T05:01:23.440Z,19.10
2022-07-27T05:03:50.882Z,19.10
2022-07-27T05:06:18.301Z,19.10
2022-07-27T05:08:45.440Z,19.20
2022-07-27T05:11:12.587Z,19.40
2022-07-27T05:13:40.707Z,19.50
2022-07-27T05:16:11.648Z,19.60
2022-07-27T05:18:39.897Z,19.60
2022-07-27T05:21:08.474Z,19.60
2022-07-27T05:23:35.696Z,19.70
2022-07-27T05:26:03.133Z,19.80
2022-07-27T05:28:30.451Z,19.70
2022-07-27T05:30:57.689Z,19.80
2022-07-27T05:33:25.766Z,19.90
2022-07-27T05:35:53.044Z,20.00
2022-07-27T05:38:20.232Z,20.30
2022-07-27T05:40:47.980Z,20.40
2022-07-27T05:43:15.579Z,20.50
2022-07-27T05:45:42.762Z,20.60
2022-07-27T05:48:09.963Z,20.60
2022-07-27T05:50:37.314Z,20.60
2022-07-27T05:53:04.615Z,20.50
2022-07-27T05:55:31.935Z,20.30
2022-07-27T05:57:59.241Z,20.20
2022-07-27T06:00:26.546Z,20.20
2022-07-27T06:02:54.774Z,20.10
2022-07-27T06:05:22.135Z,20.00
2022-07-27T06:08:08.857Z,19.90
2022-07-27T06:10:37.679Z,19.80
2022-07-27T06:13:07.368Z,19.70
2022-07-27T06:15:35.223Z,19.60
2022-07-27T06:18:03.903Z,19.50
2022-07-27T06:20:31.574Z,19.50
2022-07-27T06:23:00.629Z,19.50
2022-07-27T06:25:34.459Z,19.40
2022-07-27T06:28:06.003Z,19.50
2022-07-27T06:30:33.542Z,19.50
2022-07-27T06:33:01.408Z,19.60
2022-07-27T06:35:28.577Z,19.80
2022-07-27T06:37:55.798Z,19.90
2022-07-27T06:40:26.271Z,20.00
2022-07-27T06:42:55.954Z,20.10
2022-07-27T06:45:23.093Z,20.20
2022-07-27T06:47:51.443Z,20.30
2022-07-27T06:50:20.519Z,20.40
2022-07-27T06:52:48.583Z,20.40
2022-07-27T06:55:15.900Z,20.60
2022-07-27T06:57:43.335Z,20.60
2022-07-27T07:00:11.885Z,20.70
2022-07-27T07:02:50.388Z,20.70
2022-07-27T07:05:17.538Z,21.00
2022-07-27T07:07:44.659Z,21.20
2022-07-27T07:10:11.824Z,21.30
2022-07-27T07:12:39.106Z,21.50
2022-07-27T07:15:08.279Z,21.60
2022-07-27T07:17:35.657Z,21.90
2022-07-27T10:01:21.948Z,25.20
2022-07-27T10:03:52.694Z,25.30
2022-07-27T10:06:20.137Z,26.40
2022-07-27T10:08:49.552Z,27.50
2022-07-27T10:11:17.929Z,28.90
2022-07-27T12:45:18.329Z,26.30
2022-07-27T12:47:46.142Z,26.20
2022-07-27T12:50:14.997Z,26.30
2022-07-27T12:52:46.646Z,26.50
2022-07-27T12:55:16.653Z,26.40
2022-07-27T12:58:00.050Z,26.20
2022-07-27T13:00:33.848Z,26.10
2022-07-27T13:03:08.253Z,26.00
2022-07-27T13:05:36.021Z,25.70
2022-07-27T13:08:05.002Z,25.40
2022-07-27T13:10:32.680Z,25.10
2022-07-27T13:13:00.353Z,24.60
2022-07-27T13:15:27.621Z,24.20
2022-07-27T13:17:55.223Z,23.80
2022-07-27T13:20:22.726Z,23.50
2022-07-27T13:22:50.061Z,23.70
2022-07-27T13:25:18.014Z,24.00
2022-07-27T13:27:46.734Z,24.20
2022-07-27T13:30:16.070Z,24.40
2022-07-27T13:32:44.428Z,24.40
2022-07-27T13:35:12.831Z,24.50
2022-07-27T13:37:41.116Z,24.40
2022-07-27T13:40:09.248Z,24.40
2022-07-27T13:42:36.497Z,24.30
2022-07-27T13:45:09.967Z,24.20
2022-07-27T13:47:40.155Z,24.20
2022-07-27T13:50:15.052Z,24.20
2022-07-27T13:52:46.186Z,24.30
2022-07-27T13:57:42.172Z,24.60
2022-07-27T14:00:09.904Z,24.70
2022-07-27T14:47:22.385Z,24.00
2022-07-27T14:49:49.777Z,23.90
2022-07-27T14:52:18.892Z,23.90
2022-07-27T14:54:47.460Z,23.80
2022-07-27T14:57:16.425Z,23.90
2022-07-27T14:59:44.139Z,23.90
2022-07-27T15:02:11.916Z,23.90
2022-07-27T15:04:39.286Z,23.80
2022-07-27T15:07:06.804Z,23.80
2022-07-27T15:09:34.637Z,23.80
2022-07-27T15:12:01.934Z,23.70
2022-07-27T15:14:29.343Z,23.60
2022-07-27T15:16:57.228Z,23.60
2022-07-27T15:19:24.607Z,23.60
2022-07-27T15:21:52.718Z,23.60
2022-07-27T15:24:20.021Z,23.60
2022-07-27T15:26:47.078Z,23.60
2022-07-27T15:29:15.081Z,23.60
2022-07-27T15:31:43.372Z,23.50
2022-07-27T15:34:10.690Z,23.40
2022-07-27T15:36:44.776Z,23.20
2022-07-27T15:39:15.286Z,23.20
2022-07-27T15:41:42.701Z,23.00
2022-07-27T15:44:09.969Z,22.90
2022-07-27T15:46:37.282Z,22.70
2022-07-27T15:49:04.703Z,22.60
2022-07-27T15:51:32.610Z,22.60
2022-07-27T15:53:59.695Z,22.60
2022-07-27T15:56:27.183Z,22.50
2022-07-27T15:58:54.421Z,22.50
2022-07-27T16:01:22.117Z,22.50
2022-07-27T16:03:50.361Z,22.40
2022-07-27T16:06:19.935Z,22.30
2022-07-27T16:08:47.995Z,22.20
2022-07-27T16:11:15.297Z,22.20
2022-07-27T16:13:42.620Z,22.10
2022-07-27T16:16:22.097Z,22.00
2022-07-27T16:18:51.851Z,22.00
2022-07-27T16:21:20.538Z,22.00
2022-07-27T16:23:48.859Z,21.90
2022-07-27T16:26:16.446Z,21.80
2022-07-27T16:28:46.250Z,21.80
2022-07-27T16:31:15.861Z,21.80
2022-07-27T16:33:44.663Z,21.80
2022-07-27T16:36:12.737Z,21.80
2022-07-27T16:38:49.810Z,21.70
2022-07-27T16:41:19.249Z,21.70
2022-07-27T16:43:46.883Z,21.70
2022-07-27T16:46:14.589Z,21.60
2022-07-27T16:48:43.381Z,21.60
2022-07-27T16:53:44.396Z,21.40
2022-07-27T16:56:12.613Z,21.40
2022-07-27T16:58:39.933Z,21.40
2022-07-27T17:01:08.131Z,21.40
2022-07-27T17:03:35.823Z,21.30
2022-07-27T17:06:05.970Z,21.30
2022-07-27T17:08:35.890Z,21.30
2022-07-27T17:11:06.541Z,21.20
2022-07-27T17:13:35.037Z,21.20
2022-07-27T17:16:07.652Z,21.10
2022-07-27T17:18:40.102Z,21.20
2022-07-27T17:21:12.925Z,21.10
2022-07-27T17:23:42.228Z,21.10
2022-07-27T17:26:11.093Z,21.10
2022-07-27T17:28:40.327Z,21.00
2022-07-27T17:31:10.480Z,21.00
2022-07-27T17:33:38.719Z,21.10
2022-07-27T17:36:09.720Z,21.10
2022-07-27T17:38:41.493Z,20.90
2022-07-27T17:41:08.611Z,20.80
2022-07-27T17:48:36.133Z,20.50
2022-07-27T17:53:31.945Z,20.20
2022-07-27T17:55:59.083Z,20.20
2022-07-27T17:58:30.140Z,20.30
2022-07-27T18:00:58.485Z,20.40
2022-07-27T18:03:26.004Z,20.20
2022-07-27T18:05:53.243Z,20.10
2022-07-27T18:08:20.456Z,20.20
2022-07-27T18:10:47.579Z,20.00
2022-07-27T18:13:14.783Z,20.10
2022-07-27T18:15:47.742Z,19.90
2022-07-27T18:18:18.615Z,19.80
2022-07-27T18:20:48.297Z,19.90
2022-07-27T18:23:16.281Z,20.00
2022-07-27T18:25:47.041Z,20.00
2022-07-27T18:28:16.386Z,20.10
2022-07-27T18:30:46.080Z,20.00
2022-07-27T18:33:14.736Z,19.90
2022-07-27T18:35:43.289Z,19.90
2022-07-27T18:38:10.902Z,19.90
2022-07-27T18:40:40.693Z,19.90
2022-07-27T18:43:10.949Z,19.90
2022-07-27T18:45:39.464Z,19.90
2022-07-27T18:48:09.191Z,19.90
2022-07-27T18:50:40.148Z,20.00
2022-07-27T18:53:08.939Z,19.90
2022-07-27T18:55:36.631Z,20.00
2022-07-27T18:58:04.957Z,19.90
2022-07-27T19:00:33.775Z,19.90
2022-07-27T19:03:01.922Z,19.80
2022-07-27T19:05:32.329Z,19.80
2022-07-27T19:08:13.729Z,19.70
2022-07-27T19:10:44.961Z,19.70
2022-07-27T19:13:14.469Z,19.70
2022-07-27T19:15:41.638Z,19.60
2022-07-27T19:18:08.924Z,19.60
2022-07-27T19:20:37.787Z,19.60
2022-07-27T19:23:07.953Z,19.60
2022-07-27T19:25:35.321Z,19.60
2022-07-27T19:28:03.873Z,19.60
2022-07-27T19:30:31.167Z,19.50
2022-07-27T19:32:58.509Z,19.50
2022-07-27T19:35:25.780Z,19.40
2022-07-27T19:37:52.985Z,19.30
2022-07-27T19:43:07.626Z,19.20
2022-07-27T19:45:36.633Z,19.10
2022-07-27T19:48:05.681Z,19.00
